sensor_id;sensor_type;location;lat;lon;timestamp;pressure;altitude;pressure_sealevel;temperature;humidity
36726;BME280;44936;52.086;5.150;2023-03-14T00:02:16;99345.72;;;9.38;100.00
36726;BME280;44936;52.086;5.150;2023-03-14T00:04:41;99351.72;;;9.43;100.00
36726;BME280;44936;52.086;5.150;2023-03-14T00:07:06;99350.91;;;9.41;100.00
36726;BME280;44936;52.086;5.150;2023-03-14T00:09:32;99336.94;;;9.42;100.00
36726;BME280;44936;52.086;5.150;2023-03-14T00:11:57;99362.06;;;9.52;100.00
36726;BME280;44936;52.086;5.150;2023-03-14T00:14:23;99358.50;;;9.56;100.00
36726;BME280;44936;52.086;5.150;2023-03-14T00:16:49;99376.03;;;9.51;100.00
36726;BME280;44936;52.086;5.150;2023-03-14T00:19:14;99373.34;;;9.54;100.00
36726;BME280;44936;52.086;5.150;2023-03-14T00:21:40;99370.88;;;9.46;100.00
36726;BME280;44936;52.086;5.150;2023-03-14T00:24:07;99376.06;;;9.49;100.00
36726;BME280;44936;52.086;5.150;2023-03-14T00:26:33;99383.00;;;9.50;100.00
36726;BME280;44936;52.086;5.150;2023-03-14T00:28:58;99384.84;;;9.44;100.00
36726;BME280;44936;52.086;5.150;2023-03-14T00:31:23;99390.00;;;9.50;100.00
36726;BME280;44936;52.086;5.150;2023-03-14T00:33:51;99405.72;;;9.50;100.00
36726;BME280;44936;52.086;5.150;2023-03-14T00:36:17;99404.00;;;9.47;100.00
36726;BME280;44936;52.086;5.150;2023-03-14T00:38:45;99424.84;;;9.55;100.00
36726;BME280;44936;52.086;5.150;2023-03-14T00:41:13;99437.94;;;9.55;100.00
36726;BME280;44936;52.086;5.150;2023-03-14T00:43:39;99418.78;;;9.51;100.00
36726;BME280;44936;52.086;5.150;2023-03-14T00:46:05;99422.97;;;9.61;100.00
36726;BME280;44936;52.086;5.150;2023-03-14T00:48:30;99433.53;;;9.57;100.00
36726;BME280;44936;52.086;5.150;2023-03-14T00:50:56;99425.81;;;9.48;100.00
36726;BME280;44936;52.086;5.150;2023-03-14T00:53:22;99426.72;;;9.44;100.00
36726;BME280;44936;52.086;5.150;2023-03-14T00:55:48;99424.94;;;9.49;100.00
36726;BME280;44936;52.086;5.150;2023-03-14T00:58:15;99430.13;;;9.50;100.00
36726;BME280;44936;52.086;5.150;2023-03-14T01:00:41;99437.13;;;9.50;100.00
36726;BME280;44936;52.086;5.150;2023-03-14T01:03:09;99433.75;;;9.42;100.00
36726;BME280;44936;52.086;5.150;2023-03-14T01:05:34;99424.19;;;9.39;100.00
36726;BME280;44936;52.086;5.150;2023-03-14T01:08:00;99431.22;;;9.35;100.00
36726;BME280;44936;52.086;5.150;2023-03-14T01:10:26;99421.63;;;9.34;100.00
36726;BME280;44936;52.086;5.150;2023-03-14T01:12:51;99433.84;;;9.37;100.00
36726;BME280;44936;52.086;5.150;2023-03-14T01:15:16;99406.16;;;9.21;100.00
36726;BME280;44936;52.086;5.150;2023-03-14T01:17:42;99381.81;;;9.16;100.00
36726;BME280;44936;52.086;5.150;2023-03-14T01:20:09;99381.75;;;9.20;100.00
36726;BME280;44936;52.086;5.150;2023-03-14T01:22:36;99383.56;;;9.15;100.00
36726;BME280;44936;52.086;5.150;2023-03-14T01:25:01;99376.63;;;9.13;100.00
36726;BME280;44936;52.086;5.150;2023-03-14T01:27:27;99378.38;;;9.12;100.00
36726;BME280;44936;52.086;5.150;2023-03-14T01:29:52;99368.66;;;9.20;100.00
36726;BME280;44936;52.086;5.150;2023-03-14T01:32:17;99364.34;;;9.16;100.00
36726;BME280;44936;52.086;5.150;2023-03-14T01:34:43;99365.31;;;9.11;100.00
36726;BME280;44936;52.086;5.150;2023-03-14T01:37:08;99356.56;;;9.13;100.00
36726;BME280;44936;52.086;5.150;2023-03-14T01:39:33;99348.78;;;9.10;100.00
36726;BME280;44936;52.086;5.150;2023-03-14T01:42:00;99360.97;;;9.11;100.00
36726;BME280;44936;52.086;5.150;2023-03-14T01:44:26;99339.97;;;9.14;100.00
36726;BME280;44936;52.086;5.150;2023-03-14T01:46:51;99333.16;;;9.04;100.00
36726;BME280;44936;52.086;5.150;2023-03-14T01:49:32;99341.72;;;9.14;100.00
36726;BME280;44936;52.086;5.150;2023-03-14T01:52:10;99341.81;;;9.07;100.00
36726;BME280;44936;52.086;5.150;2023-03-14T01:54:46;99354.00;;;9.10;100.00
36726;BME280;44936;52.086;5.150;2023-03-14T01:57:23;99358.41;;;9.06;100.00
36726;BME280;44936;52.086;5.150;2023-03-14T02:00:11;99358.31;;;9.13;100.00
36726;BME280;44936;52.086;5.150;2023-03-14T02:02:39;99355.66;;;9.14;100.00
36726;BME280;44936;52.086;5.150;2023-03-14T02:05:06;99351.38;;;9.08;100.00
36726;BME280;44936;52.086;5.150;2023-03-14T02:07:55;99349.63;;;9.09;100.00
36726;BME280;44936;52.086;5.150;2023-03-14T02:10:25;99351.34;;;9.12;100.00
36726;BME280;44936;52.086;5.150;2023-03-14T02:12:53;99363.56;;;9.11;100.00
36726;BME280;44936;52.086;5.150;2023-03-14T02:15:20;99364.53;;;9.04;100.00
36726;BME280;44936;52.086;5.150;2023-03-14T02:17:47;99367.06;;;9.08;100.00
36726;BME280;44936;52.086;5.150;2023-03-14T02:22:50;99355.00;;;9.00;100.00
36726;BME280;44936;52.086;5.150;2023-03-14T02:28:09;99330.53;;;9.05;100.00
36726;BME280;44936;52.086;5.150;2023-03-14T02:30:34;99322.84;;;8.95;100.00
36726;BME280;44936;52.086;5.150;2023-03-14T02:33:04;99332.25;;;9.06;100.00
36726;BME280;44936;52.086;5.150;2023-03-14T02:35:42;99321.00;;;9.00;100.00
36726;BME280;44936;52.086;5.150;2023-03-14T02:41:12;99340.94;;;9.07;100.00
36726;BME280;44936;52.086;5.150;2023-03-14T02:43:37;99334.03;;;9.04;100.00
36726;BME280;44936;52.086;5.150;2023-03-14T02:46:05;99323.56;;;9.04;100.00
36726;BME280;44936;52.086;5.150;2023-03-14T02:48:36;99325.28;;;9.05;100.00
36726;BME280;44936;52.086;5.150;2023-03-14T02:51:03;99319.19;;;9.05;100.00
36726;BME280;44936;52.086;5.150;2023-03-14T02:53:31;99326.19;;;9.03;100.00
36726;BME280;44936;52.086;5.150;2023-03-14T02:55:57;99328.72;;;9.09;100.00
36726;BME280;44936;52.086;5.150;2023-03-14T02:58:23;99321.06;;;8.97;100.00
36726;BME280;44936;52.086;5.150;2023-03-14T03:00:48;99337.56;;;9.00;100.00
36726;BME280;44936;52.086;5.150;2023-03-14T03:03:14;99334.06;;;9.03;100.00
36726;BME280;44936;52.086;5.150;2023-03-14T03:05:39;99321.00;;;9.00;100.00
36726;BME280;44936;52.086;5.150;2023-03-14T03:08:05;99323.50;;;9.07;100.00
36726;BME280;44936;52.086;5.150;2023-03-14T03:10:31;99313.16;;;9.00;100.00
36726;BME280;44936;52.086;5.150;2023-03-14T03:12:57;99326.16;;;9.06;100.00
36726;BME280;44936;52.086;5.150;2023-03-14T03:15:23;99333.16;;;9.04;100.00
36726;BME280;44936;52.086;5.150;2023-03-14T03:17:48;99316.66;;;8.99;100.00
36726;BME280;44936;52.086;5.150;2023-03-14T03:20:14;99333.06;;;9.08;100.00
36726;BME280;44936;52.086;5.150;2023-03-14T03:22:39;99319.09;;;9.09;100.00
36726;BME280;44936;52.086;5.150;2023-03-14T03:25:06;99306.19;;;9.02;100.00
36726;BME280;44936;52.086;5.150;2023-03-14T03:27:34;99315.75;;;9.03;100.00
36726;BME280;44936;52.086;5.150;2023-03-14T03:30:00;99308.69;;;9.08;100.00
36726;BME280;44936;52.086;5.150;2023-03-14T03:32:26;99308.75;;;9.03;100.00
36726;BME280;44936;52.086;5.150;2023-03-14T03:34:51;99313.16;;;9.00;100.00
36726;BME280;44936;52.086;5.150;2023-03-14T03:37:17;99299.34;;;8.93;100.00
36726;BME280;44936;52.086;5.150;2023-03-14T03:39:43;99314.03;;;9.02;100.00
36726;BME280;44936;52.086;5.150;2023-03-14T03:42:08;99315.75;;;9.03;100.00
36726;BME280;44936;52.086;5.150;2023-03-14T03:44:33;99314.88;;;9.02;100.00
36726;BME280;44936;52.086;5.150;2023-03-14T03:46:58;99317.47;;;9.04;100.00
36726;BME280;44936;52.086;5.150;2023-03-14T03:49:24;99308.69;;;9.08;100.00
36726;BME280;44936;52.086;5.150;2023-03-14T03:51:49;99316.53;;;9.06;100.00
36726;BME280;44936;52.086;5.150;2023-03-14T03:54:15;99315.78;;;9.00;100.00
36726;BME280;44936;52.086;5.150;2023-03-14T03:56:40;99320.00;;;9.08;100.00
36726;BME280;44936;52.086;5.150;2023-03-14T03:59:06;99303.53;;;9.03;100.00
36726;BME280;44936;52.086;5.150;2023-03-14T04:01:31;99326.97;;;9.11;100.00
36726;BME280;44936;52.086;5.150;2023-03-14T04:03:56;99312.25;;;9.04;100.00
36726;BME280;44936;52.086;5.150;2023-03-14T04:06:22;99325.16;;;9.15;100.00
36726;BME280;44936;52.086;5.150;2023-03-14T04:08:47;99328.66;;;9.14;100.00
36726;BME280;44936;52.086;5.150;2023-03-14T04:11:12;99328.59;;;9.17;100.00
36726;BME280;44936;52.086;5.150;2023-03-14T04:13:38;99326.88;;;9.16;100.00
36726;BME280;44936;52.086;5.150;2023-03-14T04:16:03;99336.38;;;9.21;100.00
36726;BME280;44936;52.086;5.150;2023-03-14T04:18:28;99336.38;;;9.21;100.00
36726;BME280;44936;52.086;5.150;2023-03-14T04:20:56;99338.13;;;9.21;100.00
36726;BME280;44936;52.086;5.150;2023-03-14T04:23:23;99347.63;;;9.26;100.00
36726;BME280;44936;52.086;5.150;2023-03-14T04:25:50;99352.06;;;9.23;100.00
36726;BME280;44936;52.086;5.150;2023-03-14T04:28:15;99346.88;;;9.18;100.00
36726;BME280;44936;52.086;5.150;2023-03-14T04:30:41;99352.06;;;9.23;100.00
36726;BME280;44936;52.086;5.150;2023-03-14T04:33:06;99321.72;;;9.09;100.00
36726;BME280;44936;52.086;5.150;2023-03-14T04:35:32;99330.25;;;9.22;100.00
36726;BME280;44936;52.086;5.150;2023-03-14T04:37:58;99325.09;;;9.19;100.00
36726;BME280;44936;52.086;5.150;2023-03-14T04:40:24;99334.53;;;9.26;100.00
36726;BME280;44936;52.086;5.150;2023-03-14T04:42:50;99319.84;;;9.19;100.00
36726;BME280;44936;52.086;5.150;2023-03-14T04:45:17;99325.03;;;9.22;100.00
36726;BME280;44936;52.086;5.150;2023-03-14T04:47:43;99325.03;;;9.22;100.00
36726;BME280;44936;52.086;5.150;2023-03-14T04:50:09;99322.31;;;9.28;100.00
36726;BME280;44936;52.086;5.150;2023-03-14T04:52:35;99330.13;;;9.31;100.00
36726;BME280;44936;52.086;5.150;2023-03-14T04:55:00;99336.19;;;9.33;100.00
36726;BME280;44936;52.086;5.150;2023-03-14T04:57:26;99320.47;;;9.33;100.00
36726;BME280;44936;52.086;5.150;2023-03-14T04:59:51;99326.72;;;9.25;100.00
36726;BME280;44936;52.086;5.150;2023-03-14T05:02:16;99291.09;;;9.16;100.00
36726;BME280;44936;52.086;5.150;2023-03-14T05:04:41;99285.81;;;9.21;100.00
36726;BME280;44936;52.086;5.150;2023-03-14T05:07:07;99272.88;;;9.13;100.00
36726;BME280;44936;52.086;5.150;2023-03-14T05:09:32;99267.56;;;9.16;100.00
36726;BME280;44936;52.086;5.150;2023-03-14T05:11:57;99270.28;;;9.12;100.00
36726;BME280;44936;52.086;5.150;2023-03-14T05:14:23;99250.25;;;9.11;100.00
36726;BME280;44936;52.086;5.150;2023-03-14T05:16:48;99248.44;;;9.14;100.00
36726;BME280;44936;52.086;5.150;2023-03-14T05:19:13;99232.81;;;9.08;100.00
36726;BME280;44936;52.086;5.150;2023-03-14T05:21:39;99225.88;;;9.07;100.00
36726;BME280;44936;52.086;5.150;2023-03-14T05:24:04;99217.16;;;9.06;100.00
36726;BME280;44936;52.086;5.150;2023-03-14T05:26:30;99196.28;;;9.05;100.00
36726;BME280;44936;52.086;5.150;2023-03-14T05:28:55;99194.59;;;9.01;100.00
36726;BME280;44936;52.086;5.150;2023-03-14T05:31:20;99185.78;;;9.06;100.00
36726;BME280;44936;52.086;5.150;2023-03-14T05:33:46;99184.97;;;9.03;100.00
36726;BME280;44936;52.086;5.150;2023-03-14T05:36:11;99180.56;;;9.06;100.00
36726;BME280;44936;52.086;5.150;2023-03-14T05:38:37;99167.47;;;9.06;100.00
36726;BME280;44936;52.086;5.150;2023-03-14T05:41:02;99172.75;;;9.05;100.00
36726;BME280;44936;52.086;5.150;2023-03-14T05:43:28;99163.13;;;9.05;100.00
36726;BME280;44936;52.086;5.150;2023-03-14T05:45:53;99151.78;;;9.06;100.00
36726;BME280;44936;52.086;5.150;2023-03-14T05:48:19;99150.09;;;9.04;100.00
36726;BME280;44936;52.086;5.150;2023-03-14T05:50:44;99159.66;;;9.05;100.00
36726;BME280;44936;52.086;5.150;2023-03-14T05:53:09;99156.22;;;9.03;100.00
36726;BME280;44936;52.086;5.150;2023-03-14T05:55:34;99159.72;;;9.02;100.00
36726;BME280;44936;52.086;5.150;2023-03-14T05:58:00;99143.06;;;9.06;100.00
36726;BME280;44936;52.086;5.150;2023-03-14T06:00:25;99141.59;;;8.93;100.00
36726;BME280;44936;52.086;5.150;2023-03-14T06:02:51;99127.00;;;8.78;100.00
36726;BME280;44936;52.086;5.150;2023-03-14T06:05:16;99141.59;;;8.93;100.00
36726;BME280;44936;52.086;5.150;2023-03-14T06:07:41;99146.81;;;8.93;100.00
36726;BME280;44936;52.086;5.150;2023-03-14T06:10:07;99122.56;;;8.83;100.00
36726;BME280;44936;52.086;5.150;2023-03-14T06:12:33;99119.78;;;8.94;100.00
36726;BME280;44936;52.086;5.150;2023-03-14T06:14:58;99127.44;;;9.03;100.00
36726;BME280;44936;52.086;5.150;2023-03-14T06:17:23;99166.66;;;9.04;100.00
36726;BME280;44936;52.086;5.150;2023-03-14T06:19:48;99184.16;;;8.99;100.00
36726;BME280;44936;52.086;5.150;2023-03-14T06:22:14;99191.38;;;8.85;100.00
36726;BME280;44936;52.086;5.150;2023-03-14T06:24:39;99197.41;;;8.89;100.00
36726;BME280;44936;52.086;5.150;2023-03-14T06:27:05;99203.81;;;8.71;100.00
36726;BME280;44936;52.086;5.150;2023-03-14T06:29:30;99258.00;;;8.60;100.00
36726;BME280;44936;52.086;5.150;2023-03-14T06:31:56;99285.09;;;8.52;100.00
36726;BME280;44936;52.086;5.150;2023-03-14T06:34:21;99313.84;;;8.51;100.00
36726;BME280;44936;52.086;5.150;2023-03-14T06:36:47;99318.44;;;8.31;100.00
36726;BME280;44936;52.086;5.150;2023-03-14T06:39:12;99338.41;;;8.36;100.00
36726;BME280;44936;52.086;5.150;2023-03-14T06:41:37;99343.66;;;8.30;100.00
36726;BME280;44936;52.086;5.150;2023-03-14T06:44:03;99354.22;;;8.21;100.00
36726;BME280;44936;52.086;5.150;2023-03-14T06:46:29;99375.09;;;8.24;100.00
36726;BME280;44936;52.086;5.150;2023-03-14T06:48:54;99339.63;;;8.06;100.00
36726;BME280;44936;52.086;5.150;2023-03-14T06:51:20;99369.81;;;8.29;100.00
36726;BME280;44936;52.086;5.150;2023-03-14T06:53:45;99356.94;;;8.13;100.00
36726;BME280;44936;52.086;5.150;2023-03-14T06:56:10;99375.09;;;8.24;100.00
36726;BME280;44936;52.086;5.150;2023-03-14T06:58:35;99372.47;;;8.26;100.00
36726;BME280;44936;52.086;5.150;2023-03-14T07:01:01;99376.03;;;8.18;100.00
36726;BME280;44936;52.086;5.150;2023-03-14T07:03:26;99383.88;;;8.18;100.00
36726;BME280;44936;52.086;5.150;2023-03-14T07:05:52;99383.81;;;8.24;100.00
36726;BME280;44936;52.086;5.150;2023-03-14T07:08:18;99393.31;;;8.30;100.00
36726;BME280;44936;52.086;5.150;2023-03-14T07:10:43;99397.66;;;8.30;100.00
36726;BME280;44936;52.086;5.150;2023-03-14T07:13:08;99413.44;;;8.23;100.00
36726;BME280;44936;52.086;5.150;2023-03-14T07:15:36;99423.88;;;8.20;100.00
36726;BME280;44936;52.086;5.150;2023-03-14T07:18:02;99424.00;;;8.10;100.00
36726;BME280;44936;52.086;5.150;2023-03-14T07:20:28;99463.16;;;8.14;100.00
36726;BME280;44936;52.086;5.150;2023-03-14T07:22:54;99474.50;;;8.09;100.00
36726;BME280;44936;52.086;5.150;2023-03-14T07:25:20;99493.69;;;8.02;100.00
36726;BME280;44936;52.086;5.150;2023-03-14T07:27:45;99506.81;;;7.94;100.00
36726;BME280;44936;52.086;5.150;2023-03-14T07:30:13;99527.66;;;8.00;100.00
36726;BME280;44936;52.086;5.150;2023-03-14T07:32:38;99544.19;;;8.02;100.00
36726;BME280;44936;52.086;5.150;2023-03-14T07:35:04;99552.06;;;7.96;100.00
36726;BME280;44936;52.086;5.150;2023-03-14T07:37:29;99561.63;;;7.97;100.00
36726;BME280;44936;52.086;5.150;2023-03-14T07:39:55;99580.75;;;8.01;100.00
36726;BME280;44936;52.086;5.150;2023-03-14T07:42:20;99597.34;;;7.97;100.00
36726;BME280;44936;52.086;5.150;2023-03-14T07:44:45;99606.09;;;7.88;100.00
36726;BME280;44936;52.086;5.150;2023-03-14T07:47:11;99615.66;;;7.89;100.00
36726;BME280;44936;52.086;5.150;2023-03-14T07:49:36;99628.69;;;7.86;100.00
36726;BME280;44936;52.086;5.150;2023-03-14T07:52:01;99642.63;;;7.85;100.00
36726;BME280;44936;52.086;5.150;2023-03-14T07:54:27;99647.00;;;7.81;100.00
36726;BME280;44936;52.086;5.150;2023-03-14T07:56:52;99664.38;;;7.84;100.00
36726;BME280;44936;52.086;5.150;2023-03-14T07:59:18;99657.44;;;7.84;100.00
36726;BME280;44936;52.086;5.150;2023-03-14T08:01:44;99680.91;;;7.89;100.00
36726;BME280;44936;52.086;5.150;2023-03-14T08:04:09;99694.84;;;7.89;100.00
36726;BME280;44936;52.086;5.150;2023-03-14T08:06:35;99678.38;;;7.67;100.00
36726;BME280;44936;52.086;5.150;2023-03-14T08:09:01;99709.72;;;7.71;100.00
36726;BME280;44936;52.086;5.150;2023-03-14T08:11:27;99737.63;;;7.29;100.00
36726;BME280;44936;52.086;5.150;2023-03-14T08:13:52;99788.91;;;7.04;100.00
36726;BME280;44936;52.086;5.150;2023-03-14T08:16:18;99794.09;;;6.78;100.00
36726;BME280;44936;52.086;5.150;2023-03-14T08:18:44;99816.69;;;6.65;100.00
36726;BME280;44936;52.086;5.150;2023-03-14T08:21:09;99818.44;;;6.77;100.00
36726;BME280;44936;52.086;5.150;2023-03-14T08:23:35;99827.09;;;6.64;100.00
36726;BME280;44936;52.086;5.150;2023-03-14T08:26:00;99834.00;;;6.48;100.00
36726;BME280;44936;52.086;5.150;2023-03-14T08:28:26;99844.41;;;6.46;100.00
36726;BME280;44936;52.086;5.150;2023-03-14T08:30:57;99851.28;;;6.29;100.00
36726;BME280;44936;52.086;5.150;2023-03-14T08:33:23;99862.63;;;6.43;100.00
36726;BME280;44936;52.086;5.150;2023-03-14T08:35:52;99868.66;;;6.30;100.00
36726;BME280;44936;52.086;5.150;2023-03-14T08:38:17;99881.63;;;6.21;100.00
36726;BME280;44936;52.086;5.150;2023-03-14T08:40:43;99899.81;;;6.18;100.00
36726;BME280;44936;52.086;5.150;2023-03-14T08:43:08;99891.13;;;6.16;100.00
36726;BME280;44936;52.086;5.150;2023-03-14T08:45:33;99906.78;;;6.22;100.00
36726;BME280;44936;52.086;5.150;2023-03-14T08:47:59;99910.28;;;6.24;100.00
36726;BME280;44936;52.086;5.150;2023-03-14T08:50:24;99921.69;;;6.53;100.00
36726;BME280;44936;52.086;5.150;2023-03-14T08:52:50;99940.00;;;6.66;100.00
36726;BME280;44936;52.086;5.150;2023-03-14T08:55:15;99957.34;;;6.61;100.00
36726;BME280;44936;52.086;5.150;2023-03-14T08:57:40;99963.47;;;6.67;100.00
36726;BME280;44936;52.086;5.150;2023-03-14T09:00:07;99999.13;;;6.76;100.00
36726;BME280;44936;52.086;5.150;2023-03-14T09:02:40;100002.50;;;6.60;100.00
36726;BME280;44936;52.086;5.150;2023-03-14T09:05:06;100021.66;;;6.68;100.00
36726;BME280;44936;52.086;5.150;2023-03-14T09:07:32;100026.00;;;6.67;100.00
36726;BME280;44936;52.086;5.150;2023-03-14T09:09:57;100072.09;;;6.79;100.00
36726;BME280;44936;52.086;5.150;2023-03-14T09:12:22;100063.34;;;6.68;100.00
36726;BME280;44936;52.086;5.150;2023-03-14T09:14:48;100066.88;;;6.73;100.00
36726;BME280;44936;52.086;5.150;2023-03-14T09:17:13;100091.31;;;6.96;100.00
36726;BME280;44936;52.086;5.150;2023-03-14T09:19:38;100120.97;;;7.07;100.00
36726;BME280;44936;52.086;5.150;2023-03-14T09:22:04;100127.88;;;7.05;100.00
36726;BME280;44936;52.086;5.150;2023-03-14T09:24:29;100133.09;;;7.05;100.00
36726;BME280;44936;52.086;5.150;2023-03-14T09:26:55;100141.88;;;7.21;100.00
36726;BME280;44936;52.086;5.150;2023-03-14T09:29:21;100166.16;;;7.09;100.00
36726;BME280;44936;52.086;5.150;2023-03-14T09:31:47;100164.44;;;7.13;100.00
36726;BME280;44936;52.086;5.150;2023-03-14T09:34:12;100173.66;;;6.65;100.00
36726;BME280;44936;52.086;5.150;2023-03-14T09:36:37;100198.00;;;6.69;100.00
36726;BME280;44936;52.086;5.150;2023-03-14T09:39:04;100207.44;;;6.55;100.00
36726;BME280;44936;52.086;5.150;2023-03-14T09:41:33;100220.50;;;6.58;100.00
36726;BME280;44936;52.086;5.150;2023-03-14T09:46:51;100233.38;;;6.42;100.00
36726;BME280;44936;52.086;5.150;2023-03-14T09:49:41;100250.88;;;6.57;100.00
36726;BME280;44936;52.086;5.150;2023-03-14T09:52:28;100256.28;;;6.77;100.00
36726;BME280;44936;52.086;5.150;2023-03-14T09:55:05;100263.31;;;6.87;100.00
36726;BME280;44936;52.086;5.150;2023-03-14T09:57:34;100257.38;;;7.02;100.00
36726;BME280;44936;52.086;5.150;2023-03-14T10:00:04;100250.28;;;6.89;100.00
36726;BME280;44936;52.086;5.150;2023-03-14T10:02:38;100275.56;;;6.97;100.00
36726;BME280;44936;52.086;5.150;2023-03-14T10:05:13;100282.50;;;6.92;100.00
36726;BME280;44936;52.086;5.150;2023-03-14T10:07:39;100293.63;;;6.76;100.00
36726;BME280;44936;52.086;5.150;2023-03-14T10:10:11;100289.88;;;6.46;100.00
36726;BME280;44936;52.086;5.150;2023-03-14T10:12:38;100323.72;;;6.46;100.00
36726;BME280;44936;52.086;5.150;2023-03-14T10:15:11;100342.66;;;6.33;100.00
36726;BME280;44936;52.086;5.150;2023-03-14T10:17:55;100342.69;;;6.35;100.00
36726;BME280;44936;52.086;5.150;2023-03-14T10:20:37;100349.84;;;6.52;100.00
36726;BME280;44936;52.086;5.150;2023-03-14T10:25:39;100372.50;;;6.60;100.00
36726;BME280;44936;52.086;5.150;2023-03-14T10:28:31;100375.22;;;6.69;100.00
36726;BME280;44936;52.086;5.150;2023-03-14T10:30:58;100381.41;;;6.80;100.00
36726;BME280;44936;52.086;5.150;2023-03-14T10:33:30;100376.28;;;6.86;100.00
36726;BME280;44936;52.086;5.150;2023-03-14T10:36:05;100407.72;;;6.98;100.00
36726;BME280;44936;52.086;5.150;2023-03-14T10:38:39;100390.94;;;6.78;100.00
36726;BME280;44936;52.086;5.150;2023-03-14T10:41:34;100414.63;;;6.98;100.00
36726;BME280;44936;52.086;5.150;2023-03-14T10:44:00;100416.59;;;7.16;100.00
36726;BME280;44936;52.086;5.150;2023-03-14T10:46:30;100414.69;;;7.04;100.00
36726;BME280;44936;52.086;5.150;2023-03-14T10:48:56;100450.91;;;6.78;100.00
36726;BME280;44936;52.086;5.150;2023-03-14T10:51:28;100447.75;;;6.35;100.00
36726;BME280;44936;52.086;5.150;2023-03-14T10:54:13;100512.63;;;5.68;100.00
36726;BME280;44936;52.086;5.150;2023-03-14T10:56:39;100525.69;;;5.72;100.00
36726;BME280;44936;52.086;5.150;2023-03-14T10:59:13;100514.50;;;5.76;100.00
36726;BME280;44936;52.086;5.150;2023-03-14T11:02:04;100536.38;;;5.88;100.00
36726;BME280;44936;52.086;5.150;2023-03-14T11:04:53;100525.97;;;5.88;100.00
36726;BME280;44936;52.086;5.150;2023-03-14T11:10:02;100556.22;;;6.30;100.00
36726;BME280;44936;52.086;5.150;2023-03-14T11:12:35;100560.59;;;6.33;100.00
36726;BME280;44936;52.086;5.150;2023-03-14T11:15:13;100571.28;;;5.98;100.00
36726;BME280;44936;52.086;5.150;2023-03-14T11:20:54;100612.34;;;6.13;100.00
36726;BME280;44936;52.086;5.150;2023-03-14T11:23:36;100599.19;;;6.04;100.00
36726;BME280;44936;52.086;5.150;2023-03-14T11:26:30;100583.81;;;6.19;100.00
36726;BME280;44936;52.086;5.150;2023-03-14T11:29:12;100551.78;;;6.24;100.00
36726;BME280;44936;52.086;5.150;2023-03-14T11:31:44;100536.09;;;6.21;100.00
36726;BME280;44936;52.086;5.150;2023-03-14T11:36:42;100574.78;;;5.99;100.00
36726;BME280;44936;52.086;5.150;2023-03-14T11:39:17;100597.44;;;6.03;100.00
36726;BME280;44936;52.086;5.150;2023-03-14T11:41:48;100608.88;;;6.14;100.00
36726;BME280;44936;52.086;5.150;2023-03-14T11:44:28;100588.22;;;6.24;100.00
36726;BME280;44936;52.086;5.150;2023-03-14T11:47:06;100597.94;;;6.33;100.00
36726;BME280;44936;52.086;5.150;2023-03-14T11:49:43;100522.50;;;6.39;100.00
36726;BME280;44936;52.086;5.150;2023-03-14T11:52:35;100550.72;;;6.71;100.00
36726;BME280;44936;52.086;5.150;2023-03-14T11:55:22;100515.22;;;6.79;100.00
36726;BME280;44936;52.086;5.150;2023-03-14T11:57:51;100517.78;;;6.74;100.00
36726;BME280;44936;52.086;5.150;2023-03-14T12:00:24;100555.09;;;6.72;100.00
36726;BME280;44936;52.086;5.150;2023-03-14T12:10:42;100579.81;;;7.01;100.00
36726;BME280;44936;52.086;5.150;2023-03-14T12:13:09;100512.00;;;6.98;100.00
36726;BME280;44936;52.086;5.150;2023-03-14T12:15:39;100437.13;;;6.88;100.00
36726;BME280;44936;52.086;5.150;2023-03-14T12:18:27;100460.63;;;6.91;100.00
36726;BME280;44936;52.086;5.150;2023-03-14T12:20:58;100463.03;;;6.73;100.00
36726;BME280;44936;52.086;5.150;2023-03-14T12:23:26;100490.03;;;6.79;100.00
36726;BME280;44936;52.086;5.150;2023-03-14T12:26:08;100505.53;;;6.70;100.00
36726;BME280;44936;52.086;5.150;2023-03-14T12:28:39;100539.66;;;6.87;100.00
36726;BME280;44936;52.086;5.150;2023-03-14T12:32:05;100557.84;;;6.82;100.00
36726;BME280;44936;52.086;5.150;2023-03-14T12:42:11;100575.47;;;7.00;100.00
36726;BME280;44936;52.086;5.150;2023-03-14T12:44:43;100559.00;;;7.04;100.00
36726;BME280;44936;52.086;5.150;2023-03-14T12:49:44;100451.84;;;6.81;100.00
36726;BME280;44936;52.086;5.150;2023-03-14T12:57:53;100540.47;;;6.81;100.00
36726;BME280;44936;52.086;5.150;2023-03-14T13:00:30;100564.84;;;6.88;100.00
36726;BME280;44936;52.086;5.150;2023-03-14T13:03:02;100562.13;;;6.79;100.00
36726;BME280;44936;52.086;5.150;2023-03-14T13:05:57;100509.94;;;6.73;100.00
36726;BME280;44936;52.086;5.150;2023-03-14T13:08:40;100581.19;;;6.75;100.00
36726;BME280;44936;52.086;5.150;2023-03-14T13:11:18;100583.19;;;6.91;100.00
36726;BME280;44936;52.086;5.150;2023-03-14T13:13:49;100582.44;;;7.03;100.00
36726;BME280;44936;52.086;5.150;2023-03-14T13:16:19;100534.63;;;7.02;100.00
36726;BME280;44936;52.086;5.150;2023-03-14T13:18:46;100531.19;;;7.06;100.00
36726;BME280;44936;52.086;5.150;2023-03-14T13:21:18;100611.25;;;7.12;100.00
36726;BME280;44936;52.086;5.150;2023-03-14T13:26:31;100589.50;;;7.10;100.00
36726;BME280;44936;52.086;5.150;2023-03-14T13:28:58;100598.84;;;6.94;100.00
36726;BME280;44936;52.086;5.150;2023-03-14T13:31:25;100587.00;;;7.16;100.00
36726;BME280;44936;52.086;5.150;2023-03-14T13:34:09;100649.66;;;7.22;100.00
36726;BME280;44936;52.086;5.150;2023-03-14T13:36:35;100674.28;;;7.43;100.00
36726;BME280;44936;52.086;5.150;2023-03-14T13:39:01;100599.44;;;7.40;100.00
36726;BME280;44936;52.086;5.150;2023-03-14T13:41:29;100649.09;;;7.45;100.00
36726;BME280;44936;52.086;5.150;2023-03-14T13:44:02;100625.25;;;7.19;100.00
36726;BME280;44936;52.086;5.150;2023-03-14T13:46:29;100623.31;;;7.02;100.00
36726;BME280;44936;52.086;5.150;2023-03-14T13:49:03;100628.38;;;6.93;100.00
36726;BME280;44936;52.086;5.150;2023-03-14T13:51:30;100663.38;;;7.07;100.00
36726;BME280;44936;52.086;5.150;2023-03-14T13:53:59;100688.59;;;7.08;100.00